createdAt,value
2019-02-14T00:00:43.517Z,6.13
2019-02-14T00:03:11.621Z,6.28
2019-02-14T00:05:39.110Z,6.47
2019-02-14T00:08:06.571Z,6.49
2019-02-14T00:10:34.036Z,6.39
2019-02-14T00:13:01.513Z,6.32
2019-02-14T00:15:28.948Z,6.29
2019-02-14T00:17:56.421Z,6.23
2019-02-14T00:20:23.879Z,6.22
2019-02-14T00:22:51.354Z,6.12
2019-02-14T00:25:18.803Z,6.05
2019-02-14T00:27:46.262Z,6.15
2019-02-14T00:30:13.716Z,6.22
2019-02-14T00:32:41.150Z,6.39
2019-02-14T00:35:08.623Z,6.55
2019-02-14T00:37:36.108Z,6.41
2019-02-14T00:40:03.580Z,6.27
2019-02-14T00:42:31.032Z,5.81
2019-02-14T00:44:58.497Z,5.68
2019-02-14T00:47:25.971Z,5.54
2019-02-14T00:49:54.424Z,5.74
2019-02-14T00:52:21.888Z,5.98
2019-02-14T00:54:49.329Z,6.14
2019-02-14T00:57:16.826Z,6.32
2019-02-14T00:59:44.287Z,6.45
2019-02-14T01:02:11.742Z,6.44
2019-02-14T01:04:39.181Z,6.43
2019-02-14T01:07:06.641Z,6.44
2019-02-14T01:09:34.075Z,6.24
2019-02-14T01:12:01.579Z,6.07
2019-02-14T01:14:29.049Z,5.74
2019-02-14T01:16:56.633Z,5.91
2019-02-14T01:19:24.883Z,5.38
2019-02-14T01:21:52.311Z,5.77
2019-02-14T01:24:19.744Z,5.82
2019-02-14T01:26:47.188Z,6.18
2019-02-14T01:29:14.643Z,6.11
2019-02-14T01:31:42.082Z,5.97
2019-02-14T01:34:09.545Z,6.04
2019-02-14T01:36:36.983Z,6.02
2019-02-14T01:39:04.455Z,5.63
2019-02-14T01:41:31.903Z,5.72
2019-02-14T01:44:00.351Z,5.88
2019-02-14T01:46:27.888Z,5.95
2019-02-14T01:48:55.666Z,5.90
2019-02-14T01:51:23.163Z,5.88
2019-02-14T01:53:50.623Z,6.01
2019-02-14T01:56:18.105Z,6.09
2019-02-14T01:58:45.632Z,6.27
2019-02-14T02:01:13.100Z,6.32
2019-02-14T02:03:40.580Z,6.36
2019-02-14T02:06:08.016Z,6.39
2019-02-14T02:08:35.526Z,6.48
2019-02-14T02:11:02.999Z,6.31
2019-02-14T02:13:30.424Z,6.39
2019-02-14T02:15:57.866Z,6.45
2019-02-14T02:18:26.337Z,6.35
2019-02-14T02:20:53.799Z,6.07
2019-02-14T02:23:21.286Z,5.84
2019-02-14T02:25:48.758Z,5.91
2019-02-14T02:28:17.090Z,6.09
2019-02-14T02:30:44.672Z,5.86
2019-02-14T02:33:12.153Z,5.73
2019-02-14T02:35:39.609Z,5.97
2019-02-14T02:38:07.090Z,5.96
2019-02-14T02:40:34.535Z,6.10
2019-02-14T02:43:02.035Z,6.21
2019-02-14T02:45:29.494Z,6.27
2019-02-14T02:47:56.962Z,6.31
2019-02-14T02:50:24.474Z,6.21
2019-02-14T02:52:51.976Z,6.35
2019-02-14T02:55:19.411Z,6.26
2019-02-14T02:57:46.889Z,6.14
2019-02-14T03:00:15.342Z,6.26
2019-02-14T03:02:42.803Z,6.27
2019-02-14T03:05:10.269Z,6.34
2019-02-14T03:07:37.735Z,6.39
2019-02-14T03:10:05.204Z,6.45
2019-02-14T03:12:33.822Z,6.21
2019-02-14T03:15:01.301Z,6.29
2019-02-14T03:17:28.735Z,6.33
2019-02-14T03:19:56.167Z,6.13
2019-02-14T03:22:23.626Z,5.74
2019-02-14T03:24:51.070Z,5.88
2019-02-14T03:27:18.585Z,5.85
2019-02-14T03:29:46.049Z,5.70
2019-02-14T03:32:13.521Z,5.80
2019-02-14T03:34:41.904Z,5.86
2019-02-14T03:37:09.666Z,5.83
2019-02-14T03:39:37.157Z,5.75
2019-02-14T03:42:04.613Z,5.79
2019-02-14T03:44:32.107Z,5.83
2019-02-14T03:46:59.528Z,5.99
2019-02-14T03:49:27.829Z,5.84
2019-02-14T03:51:55.290Z,5.96
2019-02-14T03:54:22.758Z,5.88
2019-02-14T03:56:50.245Z,5.70
2019-02-14T03:59:17.754Z,5.38
2019-02-14T04:01:45.213Z,5.37
2019-02-14T04:04:12.655Z,5.06
2019-02-14T04:06:40.123Z,4.78
2019-02-14T04:09:08.378Z,4.69
2019-02-14T04:11:35.799Z,4.60
2019-02-14T04:14:03.245Z,4.75
2019-02-14T04:16:30.693Z,4.88
2019-02-14T04:18:58.425Z,4.60
2019-02-14T04:21:25.897Z,4.72
2019-02-14T04:23:54.408Z,4.87
2019-02-14T04:26:21.950Z,5.24
2019-02-14T04:28:49.401Z,5.44
2019-02-14T04:31:16.849Z,5.55
2019-02-14T04:33:44.339Z,5.08
2019-02-14T04:36:11.818Z,5.07
2019-02-14T04:38:39.335Z,4.96
2019-02-14T04:41:06.800Z,5.29
2019-02-14T04:43:34.256Z,5.47
2019-02-14T04:46:02.461Z,5.33
2019-02-14T04:48:29.914Z,5.42
2019-02-14T04:50:57.378Z,5.48
2019-02-14T04:53:24.789Z,5.37
2019-02-14T04:55:52.240Z,5.40
2019-02-14T04:58:19.696Z,5.61
2019-02-14T05:00:47.118Z,5.64
2019-02-14T05:03:14.616Z,5.69
2019-02-14T05:05:42.076Z,5.74
2019-02-14T05:08:09.602Z,5.72
2019-02-14T05:10:37.059Z,5.82
2019-02-14T05:13:04.494Z,5.89
2019-02-14T05:15:31.955Z,5.97
2019-02-14T05:17:59.511Z,6.01
2019-02-14T05:20:26.949Z,6.01
2019-02-14T05:22:54.978Z,6.09
2019-02-14T05:25:22.453Z,6.09
2019-02-14T05:27:49.910Z,6.11
2019-02-14T05:30:18.111Z,6.17
2019-02-14T05:32:45.577Z,5.97
2019-02-14T05:35:13.075Z,6.10
2019-02-14T05:37:40.551Z,6.06
2019-02-14T05:40:08.685Z,5.39
2019-02-14T05:42:36.152Z,5.40
2019-02-14T05:45:03.655Z,5.54
2019-02-14T05:47:31.075Z,5.70
2019-02-14T05:49:58.539Z,5.64
2019-02-14T05:52:25.988Z,5.46
2019-02-14T05:54:53.447Z,5.03
2019-02-14T05:57:20.888Z,4.88
2019-02-14T05:59:48.452Z,4.73
2019-02-14T06:02:15.896Z,4.79
2019-02-14T06:04:43.384Z,5.03
2019-02-14T06:07:10.898Z,5.05
2019-02-14T06:09:38.400Z,4.86
2019-02-14T06:12:05.884Z,4.62
2019-02-14T06:14:33.304Z,4.59
2019-02-14T06:17:00.742Z,4.92
2019-02-14T06:19:29.264Z,4.51
2019-02-14T06:21:56.748Z,4.62
2019-02-14T06:24:24.207Z,4.70
2019-02-14T06:26:51.666Z,4.55
2019-02-14T06:29:19.125Z,4.64
2019-02-14T06:31:46.606Z,4.41
2019-02-14T06:34:14.083Z,4.41
2019-02-14T06:36:41.562Z,4.28
2019-02-14T06:39:09.023Z,4.27
2019-02-14T06:41:36.508Z,4.28
2019-02-14T06:44:03.973Z,4.49
2019-02-14T06:46:31.415Z,4.71
2019-02-14T06:48:58.895Z,4.77
2019-02-14T06:51:26.353Z,4.97
2019-02-14T06:53:55.474Z,4.92
2019-02-14T06:56:23.037Z,4.86
2019-02-14T06:58:50.509Z,4.95
2019-02-14T07:01:17.995Z,5.30
2019-02-14T07:03:45.476Z,5.37
2019-02-14T07:06:12.947Z,5.44
2019-02-14T07:08:40.378Z,5.32
2019-02-14T07:11:07.844Z,5.23
2019-02-14T07:13:35.324Z,5.32
2019-02-14T07:16:02.885Z,5.47
2019-02-14T07:18:30.319Z,5.56
2019-02-14T07:20:57.770Z,5.58
2019-02-14T07:23:25.276Z,5.64
2019-02-14T07:25:52.782Z,5.18
2019-02-14T07:28:20.245Z,4.88
2019-02-14T07:30:47.745Z,4.50
2019-02-14T07:33:15.187Z,4.78
2019-02-14T07:35:42.637Z,4.67
2019-02-14T07:38:11.008Z,4.87
2019-02-14T07:40:38.582Z,5.14
2019-02-14T07:43:06.084Z,5.34
2019-02-14T07:45:33.930Z,5.44
2019-02-14T07:48:02.313Z,5.34
2019-02-14T07:50:29.761Z,5.34
2019-02-14T07:52:57.622Z,5.42
2019-02-14T07:55:25.130Z,5.45
2019-02-14T07:57:52.623Z,5.48
2019-02-14T08:00:20.061Z,5.42
2019-02-14T08:02:47.558Z,5.58
2019-02-14T08:05:15.059Z,5.59
2019-02-14T08:07:42.527Z,5.53
2019-02-14T08:10:10.908Z,5.85
2019-02-14T08:12:38.421Z,5.73
2019-02-14T08:15:13.816Z,5.70
2019-02-14T08:17:41.295Z,5.74
2019-02-14T08:20:17.303Z,5.97
2019-02-14T08:22:44.759Z,6.10
2019-02-14T08:25:12.223Z,6.10
2019-02-14T08:27:39.696Z,6.08
2019-02-14T08:30:07.921Z,6.04
2019-02-14T08:32:35.394Z,5.98
2019-02-14T08:35:03.329Z,6.15
2019-02-14T08:37:30.843Z,6.22
2019-02-14T08:39:58.360Z,6.39
2019-02-14T08:42:25.819Z,6.47
2019-02-14T08:44:53.306Z,6.56
2019-02-14T08:47:20.775Z,6.56
2019-02-14T08:49:48.270Z,6.68
2019-02-14T08:52:15.777Z,6.75
2019-02-14T08:54:43.233Z,6.89
2019-02-14T08:57:10.724Z,6.92
2019-02-14T08:59:38.231Z,6.98
2019-02-14T09:02:05.730Z,7.08
2019-02-14T09:04:33.879Z,7.17
2019-02-14T09:07:01.373Z,7.22
2019-02-14T09:09:28.931Z,7.36
2019-02-14T09:11:56.466Z,7.45
2019-02-14T09:14:23.911Z,7.53
2019-02-14T09:16:51.417Z,7.54
2019-02-14T09:19:18.910Z,7.69
2019-02-14T09:21:46.394Z,7.78
2019-02-14T09:24:14.456Z,7.87
2019-02-14T09:26:41.969Z,7.93
2019-02-14T09:29:09.409Z,8.03
2019-02-14T09:31:36.912Z,8.09
2019-02-14T09:34:04.696Z,8.17
2019-02-14T09:36:32.146Z,8.28
2019-02-14T09:38:59.625Z,8.33
2019-02-14T09:41:27.060Z,8.36
2019-02-14T09:43:54.606Z,8.50
2019-02-14T09:46:22.080Z,8.57
2019-02-14T09:48:49.595Z,8.64
2019-02-14T09:51:17.079Z,8.71
2019-02-14T09:53:44.625Z,8.79
2019-02-14T09:56:12.074Z,8.90
2019-02-14T09:58:39.530Z,9.07
2019-02-14T10:01:07.036Z,9.14
2019-02-14T10:03:35.326Z,9.22
2019-02-14T10:06:02.942Z,9.23
2019-02-14T10:08:30.421Z,9.25
2019-02-14T10:10:57.960Z,9.25
2019-02-14T10:13:25.543Z,9.27
2019-02-14T10:15:53.041Z,9.40
2019-02-14T10:18:20.546Z,9.43
2019-02-14T10:20:48.038Z,9.49
2019-02-14T10:23:15.521Z,9.49
2019-02-14T10:25:43.010Z,9.51
2019-02-14T10:28:10.488Z,9.52
2019-02-14T10:30:40.102Z,9.67
2019-02-14T10:33:05.919Z,9.72
2019-02-14T10:35:33.470Z,9.81
2019-02-14T10:38:00.955Z,9.81
2019-02-14T10:40:28.456Z,9.88
2019-02-14T10:42:55.920Z,9.87
2019-02-14T10:45:23.420Z,9.94
2019-02-14T10:47:50.921Z,10.01
2019-02-14T10:50:18.942Z,10.15
2019-02-14T10:52:46.473Z,10.29
2019-02-14T10:55:14.757Z,10.41
2019-02-14T10:57:42.230Z,10.47
2019-02-14T11:00:29.352Z,10.58
2019-02-14T11:02:56.818Z,10.68
2019-02-14T11:05:24.282Z,10.76
2019-02-14T11:07:51.736Z,10.79
2019-02-14T11:10:19.248Z,10.86
2019-02-14T11:12:46.766Z,10.92
2019-02-14T11:15:15.772Z,10.99
2019-02-14T11:17:43.230Z,11.03
2019-02-14T11:20:10.683Z,11.15
2019-02-14T11:22:38.150Z,11.22
2019-02-14T11:25:09.319Z,11.31
2019-02-14T11:27:36.874Z,11.37
2019-02-14T11:30:04.358Z,11.53
2019-02-14T11:32:31.839Z,11.67
2019-02-14T11:34:59.423Z,11.70
2019-02-14T11:37:26.939Z,11.83
2019-02-14T11:39:54.409Z,11.96
2019-02-14T11:42:21.995Z,12.08
2019-02-14T11:44:49.374Z,12.09
2019-02-14T11:47:16.918Z,12.27
2019-02-14T11:49:44.429Z,12.44
2019-02-14T11:52:11.902Z,12.53
2019-02-14T11:54:39.379Z,12.54
2019-02-14T11:57:07.435Z,12.60
2019-02-14T11:59:34.949Z,12.68
2019-02-14T12:02:02.432Z,12.66
2019-02-14T12:04:29.932Z,12.60
2019-02-14T12:06:57.403Z,12.63
2019-02-14T12:09:24.891Z,12.74
2019-02-14T12:11:52.361Z,12.81
2019-02-14T12:14:19.839Z,12.97
2019-02-14T12:16:47.323Z,12.98
2019-02-14T12:19:14.928Z,12.99
2019-02-14T12:21:42.381Z,13.15
2019-02-14T12:24:09.839Z,13.18
2019-02-14T12:26:38.091Z,13.14
2019-02-14T12:29:05.543Z,13.32
2019-02-14T12:31:33.097Z,13.43
2019-02-14T12:34:00.678Z,13.41
2019-02-14T12:36:28.145Z,13.46
2019-02-14T12:38:55.947Z,13.53
2019-02-14T12:41:23.398Z,13.56
2019-02-14T12:43:50.883Z,13.69
2019-02-14T12:46:18.329Z,13.54
2019-02-14T12:48:45.794Z,13.54
2019-02-14T12:51:13.244Z,13.54
2019-02-14T12:53:40.779Z,13.64
2019-02-14T12:56:08.485Z,13.73
2019-02-14T12:58:35.963Z,13.78
2019-02-14T13:01:03.486Z,13.84
2019-02-14T13:03:30.935Z,13.95
2019-02-14T13:05:58.414Z,14.02
2019-02-14T13:08:25.884Z,13.94
2019-02-14T13:10:53.359Z,13.99
2019-02-14T13:13:20.891Z,13.93
2019-02-14T13:15:48.436Z,14.02
2019-02-14T13:18:16.022Z,14.20
2019-02-14T13:20:43.517Z,14.19
2019-02-14T13:23:11.038Z,14.34
2019-02-14T13:25:38.943Z,14.40
2019-02-14T13:28:06.424Z,14.35
2019-02-14T13:30:33.893Z,14.46
2019-02-14T13:33:01.360Z,14.53
2019-02-14T13:35:28.884Z,14.53
2019-02-14T13:37:56.384Z,14.61
2019-02-14T13:40:23.897Z,14.68
2019-02-14T13:42:51.399Z,14.73
2019-02-14T13:45:20.849Z,14.79
2019-02-14T13:47:48.304Z,14.78
2019-02-14T13:50:16.148Z,14.86
2019-02-14T13:52:43.349Z,14.91
2019-02-14T13:55:10.880Z,14.91
2019-02-14T13:57:38.434Z,14.93
2019-02-14T14:00:07.501Z,14.95
2019-02-14T14:02:34.993Z,14.99
2019-02-14T14:05:02.510Z,15.11
2019-02-14T14:07:39.955Z,15.14
2019-02-14T14:09:57.441Z,15.10
2019-02-14T14:12:24.942Z,15.21
2019-02-14T14:14:52.423Z,15.26
2019-02-14T14:17:19.885Z,15.09
2019-02-14T14:19:47.398Z,15.16
2019-02-14T14:22:14.936Z,15.18
2019-02-14T14:24:42.476Z,15.19
2019-02-14T14:27:09.964Z,15.23
2019-02-14T14:29:37.448Z,15.17
2019-02-14T14:32:04.945Z,15.13
2019-02-14T14:34:32.464Z,15.04
2019-02-14T14:36:59.941Z,14.96
2019-02-14T14:39:27.430Z,15.05
2019-02-14T14:41:54.921Z,15.00
2019-02-14T14:44:22.413Z,15.01
2019-02-14T14:46:49.902Z,14.96
2019-02-14T14:49:17.465Z,14.99
2019-02-14T14:51:44.970Z,14.98
2019-02-14T14:54:12.528Z,14.91
2019-02-14T14:56:40.466Z,14.84
2019-02-14T14:59:07.942Z,14.88
2019-02-14T15:01:35.443Z,14.82
2019-02-14T15:04:02.932Z,14.78
2019-02-14T15:06:30.427Z,14.78
2019-02-14T15:08:57.919Z,14.71
2019-02-14T15:11:25.433Z,14.68
2019-02-14T15:13:53.082Z,14.66
2019-02-14T15:16:20.592Z,14.63
2019-02-14T15:18:48.082Z,14.62
2019-02-14T15:21:15.555Z,14.56
2019-02-14T15:23:43.032Z,14.55
2019-02-14T15:26:10.944Z,14.52
2019-02-14T15:28:38.438Z,14.50
2019-02-14T15:31:05.919Z,14.47
2019-02-14T15:33:33.414Z,14.49
2019-02-14T15:36:01.689Z,14.49
2019-02-14T15:38:29.216Z,14.54
2019-02-14T15:40:56.661Z,14.39
2019-02-14T15:43:24.127Z,14.31
2019-02-14T15:45:51.623Z,14.34
2019-02-14T15:48:19.118Z,14.29
2019-02-14T15:50:46.581Z,14.23
2019-02-14T15:53:14.066Z,14.23
2019-02-14T15:55:43.659Z,14.19
2019-02-14T15:58:10.633Z,14.12
2019-02-14T16:00:38.145Z,14.09
2019-02-14T16:03:05.625Z,13.98
2019-02-14T16:05:33.146Z,14.02
2019-02-14T16:08:02.464Z,13.86
2019-02-14T16:10:29.735Z,13.59
2019-02-14T16:12:55.662Z,13.64
2019-02-14T16:15:23.164Z,13.63
2019-02-14T16:17:50.662Z,13.54
2019-02-14T16:20:19.901Z,13.68
2019-02-14T16:22:46.766Z,13.68
2019-02-14T16:25:14.267Z,13.70
2019-02-14T16:27:41.921Z,13.67
2019-02-14T16:30:09.566Z,13.38
2019-02-14T16:32:36.897Z,13.33
2019-02-14T16:35:04.372Z,13.13
2019-02-14T16:37:31.820Z,13.29
2019-02-14T16:39:59.274Z,13.33
2019-02-14T16:42:27.877Z,13.28
2019-02-14T16:44:55.332Z,13.08
2019-02-14T16:47:22.824Z,12.98
2019-02-14T16:49:50.329Z,12.69
2019-02-14T16:52:17.793Z,12.54
2019-02-14T16:54:45.256Z,12.46
2019-02-14T16:57:12.728Z,12.57
2019-02-14T16:59:40.186Z,12.77
2019-02-14T17:02:07.662Z,12.86
2019-02-14T17:04:36.592Z,12.80
2019-02-14T17:07:04.240Z,12.46
2019-02-14T17:09:31.699Z,12.55
2019-02-14T17:11:59.224Z,12.60
2019-02-14T17:14:26.678Z,11.97
2019-02-14T17:16:54.161Z,12.02
2019-02-14T17:19:21.663Z,12.09
2019-02-14T17:21:49.150Z,12.01
2019-02-14T17:24:16.632Z,12.25
2019-02-14T17:26:44.121Z,12.32
2019-02-14T17:29:11.655Z,12.07
2019-02-14T17:31:39.075Z,11.86
2019-02-14T17:34:06.537Z,11.99
2019-02-14T17:36:34.023Z,11.82
2019-02-14T17:39:01.516Z,11.78
2019-02-14T17:41:28.966Z,11.63
2019-02-14T17:43:56.456Z,11.78
2019-02-14T17:46:23.887Z,11.84
2019-02-14T17:48:51.352Z,11.65
2019-02-14T17:51:18.812Z,11.38
2019-02-14T17:53:46.281Z,11.53
2019-02-14T17:56:13.765Z,11.82
2019-02-14T17:58:41.247Z,11.65
2019-02-14T18:01:08.693Z,11.57
2019-02-14T18:03:36.142Z,11.60
2019-02-14T18:06:03.621Z,11.74
2019-02-14T18:08:31.074Z,11.77
2019-02-14T18:11:00.142Z,11.33
2019-02-14T18:13:27.660Z,11.35
2019-02-14T18:15:55.115Z,10.83
2019-02-14T18:18:22.586Z,10.76
2019-02-14T18:20:50.064Z,10.90
2019-02-14T18:23:17.543Z,10.68
2019-02-14T18:25:45.035Z,10.80
2019-02-14T18:28:12.534Z,10.76
2019-02-14T18:30:40.005Z,10.49
2019-02-14T18:33:07.556Z,10.92
2019-02-14T18:35:34.995Z,11.05
2019-02-14T18:38:02.443Z,11.14
2019-02-14T18:40:29.923Z,11.20
2019-02-14T18:42:57.364Z,11.23
2019-02-14T18:45:25.577Z,11.19
2019-02-14T18:47:53.058Z,11.16
2019-02-14T18:50:20.521Z,11.10
2019-02-14T18:52:48.072Z,10.92
2019-02-14T18:55:15.540Z,10.85
2019-02-14T18:57:43.026Z,10.66
2019-02-14T19:00:12.850Z,10.66
2019-02-14T19:02:40.320Z,10.77
2019-02-14T19:05:07.769Z,10.59
2019-02-14T19:07:36.040Z,10.16
2019-02-14T19:10:06.459Z,9.86
2019-02-14T19:12:33.905Z,9.88
2019-02-14T19:15:01.332Z,10.04
2019-02-14T19:17:28.850Z,10.11
2019-02-14T19:19:56.323Z,10.16
2019-02-14T19:22:23.787Z,10.01
2019-02-14T19:24:51.266Z,10.08
2019-02-14T19:27:18.718Z,10.16
2019-02-14T19:29:46.207Z,10.23
2019-02-14T19:32:13.681Z,10.33
2019-02-14T19:34:41.198Z,10.06
2019-02-14T19:37:08.620Z,10.01
2019-02-14T19:39:36.120Z,9.89
2019-02-14T19:42:03.544Z,9.44
2019-02-14T19:44:31.002Z,9.65
2019-02-14T19:46:59.363Z,9.75
2019-02-14T19:49:26.850Z,9.79
2019-02-14T19:51:54.863Z,9.75
2019-02-14T19:54:22.318Z,9.87
2019-02-14T19:56:49.755Z,10.00
2019-02-14T19:59:17.211Z,9.98
2019-02-14T20:01:44.668Z,9.84
2019-02-14T20:04:12.124Z,9.90
2019-02-14T20:06:39.646Z,9.80
2019-02-14T20:09:07.124Z,9.62
2019-02-14T20:11:37.156Z,9.30
2019-02-14T20:14:03.047Z,9.34
2019-02-14T20:16:30.631Z,9.43
2019-02-14T20:18:58.107Z,9.53
2019-02-14T20:21:25.615Z,9.75
2019-02-14T20:23:53.089Z,9.76
2019-02-14T20:26:20.522Z,9.78
2019-02-14T20:28:47.963Z,9.84
2019-02-14T20:31:15.399Z,9.82
2019-02-14T20:33:42.865Z,9.93
2019-02-14T20:36:10.309Z,9.91
2019-02-14T20:38:37.783Z,9.79
2019-02-14T20:41:05.221Z,9.71
2019-02-14T20:43:32.769Z,9.24
2019-02-14T20:46:00.246Z,9.23
2019-02-14T20:48:27.738Z,9.15
2019-02-14T20:50:55.208Z,9.22
2019-02-14T20:53:22.635Z,9.19
2019-02-14T20:55:50.128Z,9.44
2019-02-14T20:58:17.614Z,9.45
2019-02-14T21:00:46.886Z,9.47
2019-02-14T21:03:14.432Z,9.48
2019-02-14T21:05:41.865Z,9.39
2019-02-14T21:08:09.295Z,9.29
2019-02-14T21:10:36.759Z,9.31
2019-02-14T21:13:04.268Z,9.32
2019-02-14T21:15:31.706Z,9.38
2019-02-14T21:17:59.166Z,9.28
2019-02-14T21:20:26.724Z,9.14
2019-02-14T21:22:54.172Z,9.31
2019-02-14T21:25:23.326Z,9.27
2019-02-14T21:27:49.060Z,9.22
2019-02-14T21:30:16.570Z,9.22
2019-02-14T21:32:44.107Z,9.35
2019-02-14T21:35:11.597Z,9.27
2019-02-14T21:37:39.073Z,9.23
2019-02-14T21:40:07.213Z,9.23
2019-02-14T21:42:34.681Z,9.22
2019-02-14T21:45:02.176Z,9.28
2019-02-14T21:47:30.555Z,9.08
2019-02-14T21:49:58.155Z,9.17
2019-02-14T21:52:25.610Z,9.22
2019-02-14T21:54:53.072Z,9.08
2019-02-14T21:57:20.526Z,9.12
2019-02-14T21:59:48.207Z,9.23
2019-02-14T22:02:15.689Z,9.11
2019-02-14T22:04:43.168Z,9.30
2019-02-14T22:07:10.687Z,9.22
2019-02-14T22:09:38.133Z,9.24
2019-02-14T22:12:05.664Z,9.27
2019-02-14T22:14:33.104Z,9.08
2019-02-14T22:17:00.622Z,9.19
2019-02-14T22:19:28.091Z,9.15
2019-02-14T22:21:55.554Z,9.21
2019-02-14T22:24:23.076Z,9.26
2019-02-14T22:26:50.507Z,9.21
2019-02-14T22:29:18.679Z,9.08
2019-02-14T22:31:46.120Z,9.00
2019-02-14T22:34:14.270Z,9.01
2019-02-14T22:36:41.750Z,9.17
2019-02-14T22:39:09.238Z,9.13
2019-02-14T22:41:36.679Z,9.12
2019-02-14T22:44:04.157Z,9.18
2019-02-14T22:46:31.733Z,9.21
2019-02-14T22:48:59.203Z,8.92
2019-02-14T22:51:26.662Z,8.87
2019-02-14T22:53:54.099Z,8.98
2019-02-14T22:56:21.610Z,9.01
2019-02-14T22:58:49.282Z,9.09
2019-02-14T23:01:16.683Z,9.02
2019-02-14T23:03:44.194Z,8.86
2019-02-14T23:06:11.643Z,9.05
2019-02-14T23:08:39.102Z,9.01
2019-02-14T23:11:06.542Z,9.02
2019-02-14T23:13:34.018Z,9.10
2019-02-14T23:16:03.042Z,9.09
2019-02-14T23:18:30.510Z,8.90
2019-02-14T23:20:57.967Z,9.17
2019-02-14T23:23:25.423Z,9.26
2019-02-14T23:25:52.907Z,8.95
2019-02-14T23:28:20.376Z,8.68
2019-02-14T23:30:47.933Z,8.57
2019-02-14T23:33:15.359Z,8.81
2019-02-14T23:35:42.816Z,8.73
2019-02-14T23:38:10.257Z,8.54
2019-02-14T23:40:37.702Z,8.81
2019-02-14T23:43:07.122Z,8.64
2019-02-14T23:45:32.630Z,8.82
2019-02-14T23:48:00.094Z,8.78
2019-02-14T23:50:27.544Z,8.89
2019-02-14T23:55:28.721Z,8.84
2019-02-14T23:57:56.186Z,8.90
